Time;durP1;ratioP1;P1;durP2;ratioP2;P2;SDS_P1;SDS_P2;PMS_P1;PMS_P2;Temp;Humidity;BMP_temperature;BMP_pressure;BME280_temperature;BME280_humidity;BME280_pressure;Samples;Min_cycle;Max_cycle;Signal;HPM_P1;HPM_P2
2022/08/11 00:02:14;;;;;;;2.10;1.10;;;;;;;;;;5035788;28;20375;-81
2022/08/11 00:04:40;;;;;;;2.35;1.08;;;;;;;;;;5035515;28;20379;-81
2022/08/11 00:07:08;;;;;;;1.60;1.10;;;;;;;;;;5035635;28;20394;-81
2022/08/11 00:09:37;;;;;;;1.15;1.00;;;;;;;;;;5035151;28;20395;-81
2022/08/11 00:12:04;;;;;;;2.95;1.27;;;;;;;;;;5035486;28;20375;-81
2022/08/11 00:14:31;;;;;;;1.70;1.30;;;;;;;;;;5035444;28;20788;-81
2022/08/11 00:16:59;;;;;;;1.88;1.00;;;;;;;;;;5035309;28;20457;-81
2022/08/11 00:19:29;;;;;;;1.35;1.10;;;;;;;;;;5035337;28;20391;-81
2022/08/11 00:21:56;;;;;;;1.63;1.30;;;;;;;;;;5035376;28;20539;-81
2022/08/11 00:24:23;;;;;;;2.05;1.05;;;;;;;;;;5032679;28;20418;-81
2022/08/11 00:26:54;;;;;;;1.27;1.17;;;;;;;;;;5034936;28;20378;-81
2022/08/11 00:29:20;;;;;;;1.23;1.13;;;;;;;;;;5030388;28;20389;-81
2022/08/11 00:31:53;;;;;;;1.50;1.08;;;;;;;;;;5020910;28;20403;-81
2022/08/11 00:34:26;;;;;;;1.40;1.30;;;;;;;;;;5018580;28;20455;-81
2022/08/11 00:36:59;;;;;;;3.75;1.20;;;;;;;;;;5034152;28;20407;-81
2022/08/11 00:39:26;;;;;;;1.92;1.00;;;;;;;;;;5027760;28;20407;-81
2022/08/11 00:42:00;;;;;;;1.30;1.00;;;;;;;;;;5025149;28;20385;-81
2022/08/11 00:44:45;;;;;;;1.30;1.20;;;;;;;;;;5017592;28;20384;-81
2022/08/11 00:47:17;;;;;;;1.20;1.10;;;;;;;;;;5015340;28;20401;-80
2022/08/11 00:49:43;;;;;;;1.40;1.23;;;;;;;;;;5033309;28;20438;-80
2022/08/11 00:52:27;;;;;;;1.42;1.10;;;;;;;;;;5032787;28;20383;-81
2022/08/11 00:55:26;;;;;;;1.50;1.20;;;;;;;;;;5032508;28;20391;-80
2022/08/11 00:58:10;;;;;;;1.48;1.30;;;;;;;;;;5032828;28;20390;-80
2022/08/11 01:00:54;;;;;;;1.52;1.30;;;;;;;;;;5032798;28;20753;-80
2022/08/11 01:03:40;;;;;;;1.58;1.38;;;;;;;;;;5034551;28;20433;-80
2022/08/11 01:06:21;;;;;;;1.30;1.20;;;;;;;;;;5020998;28;20417;-81
2022/08/11 01:08:59;;;;;;;1.45;1.33;;;;;;;;;;5034708;28;20429;-80
2022/08/11 01:11:28;;;;;;;2.20;1.20;;;;;;;;;;5034452;28;20441;-81
2022/08/11 01:14:04;;;;;;;1.50;1.30;;;;;;;;;;5034704;28;20442;-80
2022/08/11 01:16:36;;;;;;;1.92;1.20;;;;;;;;;;5034465;28;20403;-81
2022/08/11 01:19:20;;;;;;;1.95;1.20;;;;;;;;;;5034316;28;20430;-81
2022/08/11 01:22:05;;;;;;;1.58;1.20;;;;;;;;;;5034181;28;20371;-81
2022/08/11 01:24:49;;;;;;;1.55;1.10;;;;;;;;;;5033946;28;20414;-81
2022/08/11 01:27:25;;;;;;;1.65;1.20;;;;;;;;;;5034084;28;20922;-81
2022/08/11 01:30:07;;;;;;;1.77;1.30;;;;;;;;;;5024275;28;20418;-81
2022/08/11 01:33:02;;;;;;;2.58;1.23;;;;;;;;;;5019353;28;20431;-81
2022/08/11 01:35:40;;;;;;;1.83;1.20;;;;;;;;;;5008573;28;20439;-81
2022/08/11 01:38:12;;;;;;;1.70;1.10;;;;;;;;;;5019264;28;20377;-80
2022/08/11 01:40:38;;;;;;;2.70;1.30;;;;;;;;;;5014022;28;20728;-81
2022/08/11 01:46:16;;;;;;;1.30;1.20;;;;;;;;;;5017110;28;20750;-81
2022/08/11 01:48:44;;;;;;;1.30;1.20;;;;;;;;;;5033743;28;20375;-81
2022/08/11 01:51:23;;;;;;;2.50;1.40;;;;;;;;;;5032041;28;20376;-81
2022/08/11 01:54:08;;;;;;;1.90;1.45;;;;;;;;;;5033436;28;20861;-81
2022/08/11 01:56:39;;;;;;;1.45;1.20;;;;;;;;;;5033007;28;20492;-81
2022/08/11 01:59:09;;;;;;;1.70;1.20;;;;;;;;;;5033703;28;20371;-81
2022/08/11 02:01:36;;;;;;;1.63;1.50;;;;;;;;;;5033131;28;20466;-81
2022/08/11 02:04:09;;;;;;;2.20;1.27;;;;;;;;;;5033107;28;20461;-81
2022/08/11 02:06:56;;;;;;;2.63;1.40;;;;;;;;;;5033383;28;20379;-81
2022/08/11 02:09:43;;;;;;;3.15;1.30;;;;;;;;;;5033599;28;20433;-81
2022/08/11 02:12:15;;;;;;;2.42;1.40;;;;;;;;;;5033288;28;20379;-81
2022/08/11 02:14:48;;;;;;;2.60;1.40;;;;;;;;;;5033456;28;20379;-81
2022/08/11 02:17:21;;;;;;;2.35;1.60;;;;;;;;;;5033231;28;20873;-81
2022/08/11 02:25:36;;;;;;;2.53;1.42;;;;;;;;;;5032888;28;20438;-81
2022/08/11 02:28:10;;;;;;;2.20;1.60;;;;;;;;;;5032971;28;20375;-81
2022/08/11 02:33:21;;;;;;;2.20;1.50;;;;;;;;;;5029202;28;20387;-81
2022/08/11 02:33:35;;;;;;;2.35;1.60;;;;;;;;;;5029862;28;20411;-81
2022/08/11 02:36:07;;;;;;;1.63;1.42;;;;;;;;;;5030754;28;20481;-81
2022/08/11 02:38:42;;;;;;;1.58;1.42;;;;;;;;;;5031375;28;20709;-81
2022/08/11 02:44:13;;;;;;;1.70;1.30;;;;;;;;;;5032734;28;20374;-81
2022/08/11 02:47:02;;;;;;;2.97;1.67;;;;;;;;;;5031858;28;20379;-81
2022/08/11 02:49:53;;;;;;;1.90;1.47;;;;;;;;;;5032738;28;20375;-81
2022/08/11 02:52:34;;;;;;;2.40;1.50;;;;;;;;;;5032769;28;20371;-81
2022/08/11 02:55:06;;;;;;;1.52;1.40;;;;;;;;;;5032403;28;20444;-81
2022/08/11 02:57:35;;;;;;;2.08;1.58;;;;;;;;;;5014726;28;20896;-81
2022/08/11 03:00:08;;;;;;;2.70;1.58;;;;;;;;;;5032446;28;20379;-81
2022/08/11 03:02:37;;;;;;;1.40;1.30;;;;;;;;;;5032485;28;20383;-81
2022/08/11 03:05:19;;;;;;;2.08;1.48;;;;;;;;;;5032340;28;20375;-81
2022/08/11 03:08:05;;;;;;;1.70;1.60;;;;;;;;;;5032630;28;20511;-81
2022/08/11 03:16:43;;;;;;;1.40;1.30;;;;;;;;;;5032377;28;20386;-81
2022/08/11 03:16:45;;;;;;;2.00;1.50;;;;;;;;;;5032230;28;20465;-81
2022/08/11 03:19:15;;;;;;;1.65;1.55;;;;;;;;;;5032492;28;20371;-81
2022/08/11 03:21:45;;;;;;;2.83;1.63;;;;;;;;;;5032203;28;20391;-81
2022/08/11 03:24:31;;;;;;;1.50;1.40;;;;;;;;;;5032202;28;20504;-81
2022/08/11 03:27:16;;;;;;;1.67;1.55;;;;;;;;;;5031915;28;20422;-81
2022/08/11 03:29:46;;;;;;;2.80;1.63;;;;;;;;;;5032068;28;20817;-81
2022/08/11 03:32:21;;;;;;;1.92;1.70;;;;;;;;;;5032122;28;20385;-81
2022/08/11 03:34:48;;;;;;;1.40;1.30;;;;;;;;;;5032006;28;20387;-81
2022/08/11 03:37:49;;;;;;;2.20;1.80;;;;;;;;;;5032052;28;20407;-81
2022/08/11 03:43:07;;;;;;;2.05;1.73;;;;;;;;;;5032010;28;20915;-81
2022/08/11 03:45:36;;;;;;;1.70;1.60;;;;;;;;;;5031933;28;20471;-81
2022/08/11 03:48:13;;;;;;;2.30;1.60;;;;;;;;;;5029762;28;20544;-81
2022/08/11 03:50:39;;;;;;;2.50;1.38;;;;;;;;;;5023611;28;20376;-81
2022/08/11 03:53:27;;;;;;;2.00;1.50;;;;;;;;;;5030207;28;20475;-81
2022/08/11 03:55:53;;;;;;;2.05;1.70;;;;;;;;;;5031807;28;20407;-80
2022/08/11 03:58:21;;;;;;;1.65;1.55;;;;;;;;;;5030696;28;20395;-81
2022/08/11 04:01:14;;;;;;;1.75;1.60;;;;;;;;;;5031862;28;20387;-81
2022/08/11 04:03:56;;;;;;;1.90;1.80;;;;;;;;;;5000263;28;20402;-81
2022/08/11 04:06:22;;;;;;;2.00;1.70;;;;;;;;;;5031741;28;20381;-81
2022/08/11 04:09:07;;;;;;;2.20;1.83;;;;;;;;;;5031305;28;20387;-81
2022/08/11 04:11:45;;;;;;;1.70;1.52;;;;;;;;;;5031719;28;20772;-81
2022/08/11 04:17:34;;;;;;;1.73;1.52;;;;;;;;;;5025360;28;20442;-81
2022/08/11 04:20:19;;;;;;;1.77;1.67;;;;;;;;;;5031581;28;20388;-81
2022/08/11 04:23:02;;;;;;;2.78;1.70;;;;;;;;;;5031623;28;20433;-81
2022/08/11 04:25:37;;;;;;;2.22;2.00;;;;;;;;;;5033585;28;20391;-81
2022/08/11 04:28:11;;;;;;;2.90;1.77;;;;;;;;;;5035123;28;20387;-81
2022/08/11 04:30:58;;;;;;;2.67;1.80;;;;;;;;;;5035223;28;20419;-81
2022/08/11 04:33:42;;;;;;;2.00;1.80;;;;;;;;;;5035319;28;20379;-81
2022/08/11 04:39:37;;;;;;;1.73;1.63;;;;;;;;;;4957094;29;20474;-81
2022/08/11 04:45:25;;;;;;;3.08;1.80;;;;;;;;;;4954910;29;20764;-81
2022/08/11 05:02:17;;;;;;;3.03;1.90;;;;;;;;;;4954504;29;20422;-81
2022/08/11 05:07:48;;;;;;;2.07;1.97;;;;;;;;;;4954496;29;20389;-81
2022/08/11 05:10:33;;;;;;;2.00;1.77;;;;;;;;;;5002754;28;20856;-81
2022/08/11 05:35:29;;;;;;;3.70;1.92;;;;;;;;;;5033882;28;20429;-82
2022/08/11 05:57:26;;;;;;;2.50;2.20;;;;;;;;;;5033613;28;20502;-82
2022/08/11 05:59:59;;;;;;;2.03;1.88;;;;;;;;;;5033116;28;20391;-83
2022/08/11 06:02:25;;;;;;;2.28;2.05;;;;;;;;;;5033735;28;20787;-82
2022/08/11 06:04:56;;;;;;;2.47;2.10;;;;;;;;;;5033286;28;20381;-83
2022/08/11 06:07:26;;;;;;;3.92;2.40;;;;;;;;;;5033488;28;20386;-83
2022/08/11 06:09:54;;;;;;;2.30;2.10;;;;;;;;;;5028071;28;20452;-83
2022/08/11 06:12:22;;;;;;;3.47;2.40;;;;;;;;;;5032366;28;20391;-83
2022/08/11 06:14:49;;;;;;;2.80;2.00;;;;;;;;;;5032762;28;20417;-82
2022/08/11 06:17:22;;;;;;;2.67;2.35;;;;;;;;;;5033105;28;20402;-83
2022/08/11 06:19:51;;;;;;;3.83;2.40;;;;;;;;;;5033135;28;20379;-83
2022/08/11 06:22:20;;;;;;;2.47;2.28;;;;;;;;;;5032971;28;20371;-83
2022/08/11 06:24:51;;;;;;;2.40;2.20;;;;;;;;;;5030672;28;20399;-83
2022/08/11 06:27:21;;;;;;;2.35;2.15;;;;;;;;;;5018163;28;20417;-81
2022/08/11 06:29:49;;;;;;;3.65;2.20;;;;;;;;;;5024758;28;20402;-82
2022/08/11 06:32:16;;;;;;;4.28;2.30;;;;;;;;;;5032795;28;20508;-82
2022/08/11 06:35:00;;;;;;;3.65;2.10;;;;;;;;;;5022309;28;20895;-83
2022/08/11 06:37:29;;;;;;;2.20;2.00;;;;;;;;;;5032615;28;20417;-82
2022/08/11 06:40:07;;;;;;;3.93;2.40;;;;;;;;;;5033077;28;20813;-83
2022/08/11 06:42:43;;;;;;;3.47;2.38;;;;;;;;;;5032767;28;20384;-82
2022/08/11 06:45:18;;;;;;;4.15;2.30;;;;;;;;;;5016419;28;20464;-82
2022/08/11 06:47:46;;;;;;;2.90;2.30;;;;;;;;;;5027258;28;20875;-84
2022/08/11 06:53:00;;;;;;;5.07;2.35;;;;;;;;;;5032485;28;20391;-82
2022/08/11 07:01:00;;;;;;;2.80;2.13;;;;;;;;;;5026384;28;20746;-82
2022/08/11 07:03:28;;;;;;;3.00;2.30;;;;;;;;;;5031032;28;20783;-82
2022/08/11 07:06:20;;;;;;;3.10;1.90;;;;;;;;;;5010404;28;20899;-82
2022/08/11 07:28:53;;;;;;;2.72;1.90;;;;;;;;;;5032134;28;20465;-81
2022/08/11 07:28:57;;;;;;;3.08;2.10;;;;;;;;;;5031958;28;20393;-82
2022/08/11 07:31:26;;;;;;;2.35;2.10;;;;;;;;;;5032190;28;20382;-82
2022/08/11 07:33:57;;;;;;;3.10;2.13;;;;;;;;;;5031856;28;20464;-82
2022/08/11 07:36:25;;;;;;;3.03;2.07;;;;;;;;;;5032204;28;20411;-82
2022/08/11 07:38:52;;;;;;;2.28;2.03;;;;;;;;;;5031949;28;20390;-82
2022/08/11 07:41:21;;;;;;;2.20;2.00;;;;;;;;;;5031653;28;20450;-82
2022/08/11 07:43:54;;;;;;;2.10;1.90;;;;;;;;;;5031064;28;20384;-82
2022/08/11 07:54:38;;;;;;;2.30;2.00;;;;;;;;;;5031430;28;20387;-83
2022/08/11 08:19:11;;;;;;;3.17;2.22;;;;;;;;;;5035352;28;20379;-82
2022/08/11 08:21:38;;;;;;;2.42;2.22;;;;;;;;;;5034871;28;20745;-83
2022/08/11 08:24:06;;;;;;;3.50;1.70;;;;;;;;;;5035412;28;20721;-83
2022/08/11 08:32:02;;;;;;;2.17;1.70;;;;;;;;;;5031004;28;20732;-83
2022/08/11 08:34:29;;;;;;;2.03;1.80;;;;;;;;;;5018906;28;20427;-83
2022/08/11 08:36:55;;;;;;;2.30;2.08;;;;;;;;;;5016095;28;20941;-83
2022/08/11 08:39:21;;;;;;;2.20;1.70;;;;;;;;;;5017483;28;20446;-84
2022/08/11 08:41:52;;;;;;;2.72;2.10;;;;;;;;;;5022712;28;20466;-83
2022/08/11 08:44:19;;;;;;;2.87;1.90;;;;;;;;;;5033676;28;20522;-82
2022/08/11 08:46:50;;;;;;;2.17;1.95;;;;;;;;;;5033747;28;20395;-83
2022/08/11 08:49:18;;;;;;;4.90;1.90;;;;;;;;;;5034991;28;20387;-84
2022/08/11 08:51:45;;;;;;;2.60;1.95;;;;;;;;;;5034440;28;20431;-84
2022/08/11 08:54:17;;;;;;;2.17;1.83;;;;;;;;;;5033190;28;20387;-84
2022/08/11 08:56:43;;;;;;;2.22;1.90;;;;;;;;;;5033469;28;20403;-82
2022/08/11 08:59:11;;;;;;;3.40;1.95;;;;;;;;;;5033484;28;20387;-83
2022/08/11 09:01:47;;;;;;;2.30;1.90;;;;;;;;;;5030105;28;20379;-83
2022/08/11 09:04:14;;;;;;;2.75;2.08;;;;;;;;;;5019304;28;20388;-83
2022/08/11 09:06:44;;;;;;;2.35;2.10;;;;;;;;;;5015947;28;20383;-82
2022/08/11 09:09:11;;;;;;;3.97;2.10;;;;;;;;;;5014667;28;20389;-83
2022/08/11 09:11:50;;;;;;;3.00;1.80;;;;;;;;;;4996633;28;20416;-82
2022/08/11 09:14:17;;;;;;;2.65;1.90;;;;;;;;;;5013777;28;20377;-83
2022/08/11 09:16:43;;;;;;;1.92;1.83;;;;;;;;;;5030347;28;20488;-82
2022/08/11 09:19:09;;;;;;;1.98;1.77;;;;;;;;;;5034649;28;20461;-83
2022/08/11 09:21:39;;;;;;;2.03;1.87;;;;;;;;;;5034215;28;20404;-83
2022/08/11 09:27:02;;;;;;;2.53;1.90;;;;;;;;;;5022622;28;20391;-83
2022/08/11 09:29:29;;;;;;;2.70;1.88;;;;;;;;;;5015157;28;20785;-83
2022/08/11 09:31:56;;;;;;;2.43;1.73;;;;;;;;;;5014040;28;20383;-83
2022/08/11 09:34:22;;;;;;;2.17;1.90;;;;;;;;;;5013221;28;20396;-82
2022/08/11 09:44:45;;;;;;;2.33;2.13;;;;;;;;;;5033604;28;20379;-83
2022/08/11 09:45:10;;;;;;;1.77;1.60;;;;;;;;;;5021876;28;20454;-82
2022/08/11 09:47:37;;;;;;;2.50;1.80;;;;;;;;;;5033738;28;20448;-83
2022/08/11 09:50:03;;;;;;;2.30;1.73;;;;;;;;;;5033229;28;20401;-82
2022/08/11 09:52:31;;;;;;;3.60;1.97;;;;;;;;;;5026336;28;20393;-82
2022/08/11 09:54:58;;;;;;;2.38;1.83;;;;;;;;;;5033561;28;20379;-82
2022/08/11 10:00:11;;;;;;;2.30;1.80;;;;;;;;;;5020230;28;20429;-83
2022/08/11 10:02:42;;;;;;;4.22;1.88;;;;;;;;;;5019763;28;20388;-84
2022/08/11 10:07:53;;;;;;;2.87;1.97;;;;;;;;;;5026910;28;20416;-84
2022/08/11 10:10:21;;;;;;;2.35;1.73;;;;;;;;;;5032562;28;20379;-84
2022/08/11 10:13:11;;;;;;;2.50;1.88;;;;;;;;;;5031183;28;20465;-84
2022/08/11 10:15:37;;;;;;;1.98;1.70;;;;;;;;;;5022871;28;20459;-84
2022/08/11 10:20:52;;;;;;;2.47;1.67;;;;;;;;;;5032966;28;20373;-84
2022/08/11 10:28:49;;;;;;;2.55;1.77;;;;;;;;;;5032707;28;20471;-84
2022/08/11 10:34:02;;;;;;;3.30;1.90;;;;;;;;;;5033081;28;20740;-84
2022/08/11 10:36:28;;;;;;;4.30;1.90;;;;;;;;;;5032758;28;20402;-84
2022/08/11 10:38:55;;;;;;;2.30;1.70;;;;;;;;;;5032814;28;20437;-84
2022/08/11 10:44:14;;;;;;;2.57;1.67;;;;;;;;;;5002060;28;20375;-82
2022/08/11 10:49:27;;;;;;;2.85;2.17;;;;;;;;;;4992044;28;20441;-83
2022/08/11 11:00:14;;;;;;;2.17;1.60;;;;;;;;;;5019146;28;20387;-83
2022/08/11 11:02:40;;;;;;;3.22;1.80;;;;;;;;;;5026707;28;20383;-83
2022/08/11 11:05:15;;;;;;;2.60;1.70;;;;;;;;;;5019716;28;20383;-83
2022/08/11 11:07:50;;;;;;;3.42;1.70;;;;;;;;;;5032658;28;20387;-83
2022/08/11 11:10:16;;;;;;;3.97;1.83;;;;;;;;;;5032186;28;20401;-84
2022/08/11 11:18:17;;;;;;;2.13;1.93;;;;;;;;;;5027001;28;20580;-84
2022/08/11 11:21:06;;;;;;;2.47;1.83;;;;;;;;;;5027544;28;20872;-84
2022/08/11 11:23:32;;;;;;;2.80;2.05;;;;;;;;;;5020405;28;20383;-84
2022/08/11 11:26:18;;;;;;;2.65;1.70;;;;;;;;;;5032064;28;20398;-84
2022/08/11 11:28:50;;;;;;;2.53;1.90;;;;;;;;;;5010888;28;20918;-84
2022/08/11 11:31:43;;;;;;;4.63;1.80;;;;;;;;;;5031199;28;20384;-82
2022/08/11 11:34:28;;;;;;;1.83;1.73;;;;;;;;;;5029925;28;20429;-85
2022/08/11 11:36:55;;;;;;;2.25;1.80;;;;;;;;;;5036043;28;20406;-84
2022/08/11 11:39:26;;;;;;;2.67;1.77;;;;;;;;;;5037683;28;20382;-84
2022/08/11 11:41:53;;;;;;;2.25;1.75;;;;;;;;;;5031758;28;20451;-84
2022/08/11 11:44:21;;;;;;;4.33;1.80;;;;;;;;;;5021120;28;20395;-83
2022/08/11 11:46:48;;;;;;;4.53;1.88;;;;;;;;;;5020185;28;20884;-83
2022/08/11 11:49:17;;;;;;;2.20;2.00;;;;;;;;;;5003609;28;20829;-84
2022/08/11 11:51:44;;;;;;;3.58;2.13;;;;;;;;;;5023974;28;20778;-84
2022/08/11 11:54:10;;;;;;;1.80;1.70;;;;;;;;;;5026770;28;20388;-84
2022/08/11 11:56:37;;;;;;;1.70;1.60;;;;;;;;;;5020137;28;20411;-84
2022/08/11 12:01:48;;;;;;;2.40;1.50;;;;;;;;;;5022689;28;20446;-84
2022/08/11 12:04:15;;;;;;;2.58;1.70;;;;;;;;;;5021104;28;20373;-85
2022/08/11 12:06:41;;;;;;;3.60;1.63;;;;;;;;;;5022402;28;20954;-85
2022/08/11 12:09:07;;;;;;;2.70;1.60;;;;;;;;;;5027347;28;20403;-85
2022/08/11 12:14:19;;;;;;;1.70;1.50;;;;;;;;;;5026567;28;20395;-85
2022/08/11 12:16:46;;;;;;;1.90;1.60;;;;;;;;;;5021288;28;20400;-85
2022/08/11 12:19:14;;;;;;;2.00;1.50;;;;;;;;;;5020031;28;20395;-84
2022/08/11 12:27:19;;;;;;;2.30;1.60;;;;;;;;;;5032354;28;20371;-84
2022/08/11 12:27:30;;;;;;;2.50;1.70;;;;;;;;;;4953060;28;20390;-85
2022/08/11 12:29:57;;;;;;;2.20;1.55;;;;;;;;;;5003401;28;20858;-85
2022/08/11 12:32:26;;;;;;;2.38;1.70;;;;;;;;;;5020249;28;20397;-85
2022/08/11 12:34:55;;;;;;;1.80;1.60;;;;;;;;;;5018305;28;20400;-84
2022/08/11 12:37:23;;;;;;;3.00;1.60;;;;;;;;;;5026067;28;20415;-85
2022/08/11 12:45:26;;;;;;;3.40;1.60;;;;;;;;;;5036186;28;20410;-85
2022/08/11 12:53:24;;;;;;;3.22;1.70;;;;;;;;;;5017189;28;20479;-85
2022/08/11 12:58:39;;;;;;;1.70;1.55;;;;;;;;;;5018343;28;20404;-84
2022/08/11 13:06:36;;;;;;;1.73;1.63;;;;;;;;;;5030745;28;20740;-85
2022/08/11 13:09:02;;;;;;;3.90;1.58;;;;;;;;;;5034652;28;20784;-85
2022/08/11 13:14:15;;;;;;;2.28;1.70;;;;;;;;;;5034491;28;20390;-86
2022/08/11 13:19:26;;;;;;;2.78;1.52;;;;;;;;;;5034538;28;20378;-85
2022/08/11 13:21:52;;;;;;;1.67;1.58;;;;;;;;;;5034581;28;20375;-86
2022/08/11 13:24:19;;;;;;;2.50;1.40;;;;;;;;;;5034118;28;20387;-86
2022/08/11 13:26:46;;;;;;;2.27;1.40;;;;;;;;;;5034153;28;20426;-86
2022/08/11 13:29:13;;;;;;;3.70;1.50;;;;;;;;;;5033877;28;20466;-85
2022/08/11 13:31:41;;;;;;;2.17;1.55;;;;;;;;;;5020357;28;20541;-85
2022/08/11 13:34:08;;;;;;;2.53;1.58;;;;;;;;;;5033362;28;20849;-85
2022/08/11 13:36:34;;;;;;;3.35;1.55;;;;;;;;;;5033897;28;20411;-85
2022/08/11 13:39:02;;;;;;;2.60;1.45;;;;;;;;;;5033933;28;20371;-85
2022/08/11 13:41:38;;;;;;;1.73;1.63;;;;;;;;;;5034029;28;20467;-85
2022/08/11 13:44:15;;;;;;;1.97;1.40;;;;;;;;;;5034020;28;20367;-85
2022/08/11 13:46:42;;;;;;;2.47;1.30;;;;;;;;;;5033907;28;20474;-85
2022/08/11 13:49:08;;;;;;;1.90;1.60;;;;;;;;;;5033900;28;20383;-86
2022/08/11 13:51:36;;;;;;;2.53;1.60;;;;;;;;;;5028210;28;20387;-85
2022/08/11 13:54:05;;;;;;;4.15;1.60;;;;;;;;;;5015670;28;20929;-85
2022/08/11 13:56:32;;;;;;;2.35;1.70;;;;;;;;;;5033586;28;20488;-85
2022/08/11 13:58:59;;;;;;;2.28;1.70;;;;;;;;;;5033173;28;20570;-85
2022/08/11 14:01:29;;;;;;;3.42;1.80;;;;;;;;;;5031799;28;20387;-84
2022/08/11 14:03:58;;;;;;;2.15;1.50;;;;;;;;;;5030989;28;20930;-85
2022/08/11 14:06:24;;;;;;;3.00;1.40;;;;;;;;;;5025741;28;20442;-85
2022/08/11 14:08:52;;;;;;;1.60;1.50;;;;;;;;;;5028427;28;20458;-85
2022/08/11 14:14:07;;;;;;;1.70;1.60;;;;;;;;;;5025757;28;20422;-85
2022/08/11 14:16:36;;;;;;;1.98;1.58;;;;;;;;;;5033065;28;20464;-86
2022/08/11 14:19:05;;;;;;;3.50;1.45;;;;;;;;;;5033454;28;20388;-87
2022/08/11 14:24:20;;;;;;;2.90;1.60;;;;;;;;;;5033311;28;20467;-85
2022/08/11 14:26:47;;;;;;;1.73;1.20;;;;;;;;;;5033107;28;20934;-86
2022/08/11 14:29:14;;;;;;;1.98;1.40;;;;;;;;;;5033300;28;20387;-86
2022/08/11 14:31:43;;;;;;;2.25;1.38;;;;;;;;;;5028004;28;20389;-85
2022/08/11 14:34:11;;;;;;;2.05;1.52;;;;;;;;;;5032530;28;20411;-86
2022/08/11 14:36:44;;;;;;;1.73;1.30;;;;;;;;;;5032925;28;20407;-86
2022/08/11 14:39:21;;;;;;;1.85;1.40;;;;;;;;;;5032435;28;20406;-85
2022/08/11 14:47:19;;;;;;;2.87;1.30;;;;;;;;;;5025239;28;20390;-85
2022/08/11 14:49:46;;;;;;;2.60;1.35;;;;;;;;;;5014452;28;20391;-87
2022/08/11 14:52:14;;;;;;;1.60;1.30;;;;;;;;;;5014855;28;20852;-86
2022/08/11 14:57:27;;;;;;;1.88;1.33;;;;;;;;;;5032529;28;20969;-85
2022/08/11 14:59:55;;;;;;;2.10;1.25;;;;;;;;;;5032473;28;20387;-85
2022/08/11 15:05:07;;;;;;;3.78;1.60;;;;;;;;;;5032344;28;20378;-85
2022/08/11 15:07:33;;;;;;;1.90;1.33;;;;;;;;;;5032572;28;20741;-86
2022/08/11 15:10:00;;;;;;;2.50;1.30;;;;;;;;;;5031522;28;20375;-85
2022/08/11 15:12:27;;;;;;;1.90;1.50;;;;;;;;;;5032385;28;20387;-85
2022/08/11 15:17:39;;;;;;;1.90;1.50;;;;;;;;;;5032536;28;20525;-85
2022/08/11 15:25:39;;;;;;;2.30;1.40;;;;;;;;;;5031441;28;20402;-85
2022/08/11 15:39:24;;;;;;;4.65;1.95;;;;;;;;;;5029252;28;20411;-84
2022/08/11 15:47:37;;;;;;;1.90;1.50;;;;;;;;;;5024000;28;21073;-85
2022/08/11 15:50:04;;;;;;;2.60;1.50;;;;;;;;;;5022920;28;20379;-84
2022/08/11 15:52:33;;;;;;;1.63;1.40;;;;;;;;;;5032012;28;20487;-85
2022/08/11 15:55:01;;;;;;;1.55;1.42;;;;;;;;;;5031813;28;20388;-85
2022/08/11 16:05:44;;;;;;;1.50;1.25;;;;;;;;;;5031946;28;20745;-84
2022/08/11 16:08:12;;;;;;;1.40;1.30;;;;;;;;;;5013954;28;20785;-84
2022/08/11 16:10:38;;;;;;;3.25;1.55;;;;;;;;;;5031374;28;20398;-84
2022/08/11 16:18:39;;;;;;;1.70;1.50;;;;;;;;;;5031430;28;20402;-84
2022/08/11 16:21:06;;;;;;;2.38;1.52;;;;;;;;;;5026911;28;20383;-87
2022/08/11 16:23:33;;;;;;;2.87;1.40;;;;;;;;;;5034104;28;20414;-85
2022/08/11 16:26:00;;;;;;;1.60;1.50;;;;;;;;;;5031839;28;20409;-83
2022/08/11 16:28:27;;;;;;;1.50;1.40;;;;;;;;;;5034920;28;20407;-84
2022/08/11 16:30:54;;;;;;;2.33;1.48;;;;;;;;;;5034586;28;20394;-84
2022/08/11 16:33:23;;;;;;;2.60;1.45;;;;;;;;;;5035226;28;20409;-83
2022/08/11 16:38:37;;;;;;;3.70;1.57;;;;;;;;;;4994553;28;20398;-83
2022/08/11 16:41:15;;;;;;;2.10;1.50;;;;;;;;;;5035823;28;20387;-84
2022/08/11 16:49:23;;;;;;;1.75;1.40;;;;;;;;;;5034868;28;20395;-84
2022/08/11 16:51:50;;;;;;;2.40;1.40;;;;;;;;;;5034912;28;20385;-85
2022/08/11 16:54:16;;;;;;;4.50;1.70;;;;;;;;;;5025101;28;20393;-84
2022/08/11 16:56:42;;;;;;;2.65;1.70;;;;;;;;;;5033571;28;20963;-84
2022/08/11 16:59:13;;;;;;;2.97;1.60;;;;;;;;;;5035194;28;20467;-83
2022/08/11 17:01:40;;;;;;;1.50;1.40;;;;;;;;;;5034715;28;20438;-84
2022/08/11 17:18:05;;;;;;;2.90;1.60;;;;;;;;;;5034551;28;20903;-85
2022/08/11 17:20:32;;;;;;;2.33;1.48;;;;;;;;;;5034354;28;20449;-84
2022/08/11 17:25:44;;;;;;;1.75;1.52;;;;;;;;;;5034210;28;20418;-84
2022/08/11 17:28:11;;;;;;;1.50;1.40;;;;;;;;;;5034195;28;20395;-84
2022/08/11 17:36:08;;;;;;;2.90;1.40;;;;;;;;;;5034131;28;20498;-84
2022/08/11 17:38:35;;;;;;;1.75;1.60;;;;;;;;;;5034354;28;20865;-84
2022/08/11 17:49:19;;;;;;;2.67;1.50;;;;;;;;;;5033819;28;20745;-84
2022/08/11 18:00:02;;;;;;;1.60;1.50;;;;;;;;;;5031041;28;20414;-84
2022/08/11 18:05:21;;;;;;;2.30;1.52;;;;;;;;;;5030901;28;20425;-84
